This is the latest recevied weather packets stored in our database for station/object SP1BMW-13. If no packets are shown the sender has not sent any weather packets the latest 10 day(s).
| Time | Temp. | Humidity | Pressure | Rain* | Wind** | Luminosity | Snow |
|---|---|---|---|---|---|---|---|
| 1778138035 | 7.78° C | 81% | 1012.3 hPa | 0 mm | 0.45 m/s, 31° | 144 W/m² | - |
| 1778137974 | 7.78° C | 80% | 1012.3 hPa | 0 mm | 0 m/s | 138 W/m² | - |
| 1778137914 | 7.78° C | 81% | 1012.2 hPa | 0 mm | 0.89 m/s, 32° | 139 W/m² | - |
| 1778137854 | 7.78° C | 81% | 1012.6 hPa | 0 mm | 0 m/s | 141 W/m² | - |
| 1778137794 | 7.78° C | 81% | 1012.4 hPa | 0 mm | 0.45 m/s, 14° | 124 W/m² | - |
| 1778137734 | 7.78° C | 80% | 1012.4 hPa | 0 mm | 1.79 m/s, 26° | 110 W/m² | - |
| 1778137674 | 7.78° C | 80% | 1012.3 hPa | 0 mm | 1.79 m/s, 48° | 104 W/m² | - |
| 1778137614 | 7.78° C | 82% | 1012.5 hPa | 0 mm | 1.34 m/s, 80° | 98 W/m² | - |
| 1778137554 | 7.78° C | 82% | 1012.3 hPa | 0 mm | 0 m/s | 102 W/m² | - |
| 1778137494 | 7.78° C | 82% | 1012.2 hPa | 0 mm | 0 m/s | 95 W/m² | - |
| 1778137435 | 7.78° C | 81% | 1012.4 hPa | 0 mm | 0 m/s | 83 W/m² | - |
| 1778137374 | 7.78° C | 81% | 1012.4 hPa | 0 mm | 1.34 m/s, 322° | 71 W/m² | - |
| 1778137314 | 7.78° C | 81% | 1012.2 hPa | 0 mm | 0.89 m/s, 36° | 72 W/m² | - |
| 1778137254 | 7.78° C | 82% | 1012.3 hPa | 0 mm | 0.45 m/s, 42° | 74 W/m² | - |
| 1778137194 | 7.78° C | 82% | 1012.3 hPa | 0 mm | 0.45 m/s, 51° | 72 W/m² | - |
| 1778137134 | 7.78° C | 81% | 1012.2 hPa | 0 mm | 0.45 m/s, 111° | 72 W/m² | - |
| 1778137074 | 7.78° C | 81% | 1012.3 hPa | 0 mm | 0 m/s | 80 W/m² | - |
| 1778137014 | 7.78° C | 80% | 1012.2 hPa | 0 mm | 2.24 m/s, 33° | 82 W/m² | - |
| 1778136954 | 7.78° C | 81% | 1012.2 hPa | 0 mm | 1.34 m/s, 43° | 84 W/m² | - |
| 1778136894 | 7.78° C | 81% | 1012.2 hPa | 0 mm | 0.45 m/s, 61° | 90 W/m² | - |
| 1778136834 | 7.78° C | 81% | 1012.3 hPa | 0 mm | 0.89 m/s, 30° | 101 W/m² | - |
| 1778136773 | 7.78° C | 81% | 1012.1 hPa | 0 mm | 0.89 m/s, 16° | 92 W/m² | - |
| 1778136714 | 7.78° C | 81% | 1012.2 hPa | 0 mm | 1.79 m/s, 62° | 88 W/m² | - |
| 1778136654 | 7.78° C | 81% | 1012.1 hPa | 0 mm | 1.79 m/s, 25° | 93 W/m² | - |
| 1778136594 | 7.78° C | 81% | 1012.1 hPa | 0 mm | 1.79 m/s, 31° | 103 W/m² | - |
* Rain latest hour (hover to see other rain measurements)
** Current wind speed in m/s (hover to see current wind gust speed)